Time;durP1;ratioP1;P1;durP2;ratioP2;P2;SDS_P1;SDS_P2;PMS_P1;PMS_P2;Temp;Humidity;BMP_temperature;BMP_pressure;BME280_temperature;BME280_humidity;BME280_pressure;Samples;Min_cycle;Max_cycle;Signal;HPM_P1;HPM_P2
2023/06/01 00:02:06;;;;;;;12.20;5.32;;;13.70;99.90;;;;;;5020520;28;20369;-62
2023/06/01 00:04:31;;;;;;;11.50;6.05;;;13.70;99.90;;;;;;5021701;28;20092;-62
2023/06/01 00:07:01;;;;;;;14.38;5.28;;;13.60;99.90;;;;;;4994736;28;20046;-62
2023/06/01 00:09:27;;;;;;;15.55;5.60;;;13.60;99.90;;;;;;5025258;28;20059;-62
2023/06/01 00:11:52;;;;;;;11.00;5.30;;;13.50;99.90;;;;;;5021187;28;20525;-62
2023/06/01 00:14:18;;;;;;;16.58;5.68;;;13.60;99.90;;;;;;5030002;28;20033;-62
2023/06/01 00:16:45;;;;;;;11.25;5.05;;;13.60;99.90;;;;;;4991724;28;20049;-62
2023/06/01 00:19:11;;;;;;;13.25;5.50;;;13.60;99.90;;;;;;5005365;28;20099;-62
2023/06/01 00:21:36;;;;;;;12.50;5.40;;;13.60;99.90;;;;;;5007365;28;20052;-62
2023/06/01 00:24:03;;;;;;;13.50;5.40;;;13.60;99.90;;;;;;5005658;28;20038;-62
2023/06/01 00:26:31;;;;;;;12.93;4.85;;;13.50;99.90;;;;;;5017007;28;20495;-62
2023/06/01 00:28:57;;;;;;;13.02;5.10;;;13.50;99.90;;;;;;5021527;28;20042;-62
2023/06/01 00:31:23;;;;;;;12.25;4.78;;;13.50;99.90;;;;;;5020100;28;20050;-62
2023/06/01 00:33:50;;;;;;;13.70;5.45;;;13.50;99.90;;;;;;5012805;28;20050;-63
2023/06/01 00:36:16;;;;;;;11.13;5.47;;;13.50;99.90;;;;;;5020006;28;20171;-62
2023/06/01 00:38:41;;;;;;;10.20;4.65;;;13.50;99.90;;;;;;5019515;28;20127;-62
2023/06/01 00:41:07;;;;;;;13.85;6.03;;;13.50;99.90;;;;;;5000694;28;20091;-64
2023/06/01 00:43:32;;;;;;;12.98;5.25;;;13.50;99.90;;;;;;5005179;28;20035;-63
2023/06/01 00:45:58;;;;;;;13.45;5.68;;;13.40;99.90;;;;;;4998440;28;20048;-63
2023/06/01 00:48:24;;;;;;;13.77;5.35;;;13.50;99.90;;;;;;5001096;28;20085;-62
2023/06/01 00:50:50;;;;;;;13.35;5.55;;;13.40;99.90;;;;;;4996190;28;20489;-64
2023/06/01 00:53:18;;;;;;;12.82;6.25;;;13.40;99.90;;;;;;5030111;28;20372;-62
2023/06/01 00:55:45;;;;;;;14.63;5.57;;;13.40;99.90;;;;;;5021659;28;20044;-61
2023/06/01 00:58:12;;;;;;;12.77;5.88;;;13.40;99.90;;;;;;4997597;28;20048;-64
2023/06/01 01:00:40;;;;;;;13.13;5.95;;;13.40;99.90;;;;;;5000261;28;20034;-62
2023/06/01 01:03:09;;;;;;;14.90;5.13;;;13.30;99.90;;;;;;4998911;28;20045;-64
2023/06/01 01:05:41;;;;;;;12.25;5.32;;;13.40;99.90;;;;;;5008286;28;20121;-64
2023/06/01 01:08:31;;;;;;;14.17;5.27;;;13.40;99.90;;;;;;5004843;28;20469;-63
2023/06/01 01:11:06;;;;;;;14.80;5.47;;;13.30;99.90;;;;;;5011890;28;20635;-64
2023/06/01 01:13:42;;;;;;;12.45;5.03;;;13.40;99.90;;;;;;5028386;28;20126;-64
2023/06/01 01:16:16;;;;;;;12.25;5.32;;;13.50;99.90;;;;;;4997837;28;20045;-64
2023/06/01 01:19:05;;;;;;;13.10;5.43;;;13.40;99.90;;;;;;5024089;28;20392;-64
2023/06/01 01:21:35;;;;;;;13.95;5.18;;;13.40;99.90;;;;;;4987071;28;20110;-64
2023/06/01 01:24:16;;;;;;;13.90;5.90;;;13.40;99.90;;;;;;5027064;28;20045;-63
2023/06/01 01:27:09;;;;;;;11.55;5.35;;;13.30;99.90;;;;;;5012590;28;20089;-63
2023/06/01 01:29:36;;;;;;;12.02;6.00;;;13.40;99.90;;;;;;5009003;28;20104;-63
2023/06/01 01:32:05;;;;;;;12.23;6.40;;;13.30;99.90;;;;;;5012003;28;20397;-64
2023/06/01 01:34:32;;;;;;;15.95;6.18;;;13.30;99.90;;;;;;5028358;28;20041;-64
2023/06/01 01:36:58;;;;;;;13.65;5.80;;;13.20;99.90;;;;;;5002024;28;20053;-63
2023/06/01 01:39:24;;;;;;;14.93;6.22;;;13.10;99.90;;;;;;5014767;28;20102;-63
2023/06/01 01:41:49;;;;;;;16.55;6.18;;;13.20;99.90;;;;;;5020088;28;20451;-63
2023/06/01 01:44:16;;;;;;;13.75;5.55;;;13.10;99.90;;;;;;5000117;28;20083;-63
2023/06/01 01:46:48;;;;;;;11.93;5.88;;;13.10;99.90;;;;;;5008430;28;20042;-63
2023/06/01 01:49:36;;;;;;;21.95;6.50;;;13.20;99.90;;;;;;5026212;28;20498;-64
2023/06/01 01:52:42;;;;;;;12.25;6.03;;;13.10;99.90;;;;;;5024520;28;20037;-63
2023/06/01 01:55:09;;;;;;;15.05;5.93;;;13.10;99.90;;;;;;4983943;28;20111;-61
2023/06/01 01:57:36;;;;;;;15.88;6.15;;;13.10;99.90;;;;;;4999480;28;20070;-64
2023/06/01 02:00:03;;;;;;;14.10;5.88;;;13.10;99.90;;;;;;5030210;28;20128;-64
2023/06/01 02:02:29;;;;;;;15.80;6.28;;;13.10;99.90;;;;;;5005872;28;20447;-64
2023/06/01 02:04:55;;;;;;;14.90;5.72;;;13.10;99.90;;;;;;5015791;28;20042;-64
2023/06/01 02:07:21;;;;;;;15.02;5.97;;;13.00;99.90;;;;;;5023833;28;20033;-64
2023/06/01 02:09:47;;;;;;;15.43;6.22;;;13.10;99.90;;;;;;5024850;28;20033;-64
2023/06/01 02:12:12;;;;;;;10.93;6.03;;;13.10;99.90;;;;;;5018081;28;20069;-61
2023/06/01 02:14:38;;;;;;;11.77;5.63;;;13.10;99.90;;;;;;5008527;28;20404;-64
2023/06/01 02:17:05;;;;;;;15.48;6.85;;;13.10;99.90;;;;;;5020461;28;20563;-64
2023/06/01 02:19:30;;;;;;;17.92;5.93;;;13.10;99.90;;;;;;5020996;28;20042;-62
2023/06/01 02:21:56;;;;;;;13.40;5.97;;;13.10;99.90;;;;;;5026729;28;20411;-64
2023/06/01 02:24:22;;;;;;;13.68;5.90;;;13.10;99.90;;;;;;5007318;28;20079;-64
2023/06/01 02:26:55;;;;;;;11.95;5.82;;;13.10;99.90;;;;;;5029239;28;20037;-64
2023/06/01 02:29:24;;;;;;;15.65;5.40;;;13.10;99.90;;;;;;5002775;28;20041;-62
2023/06/01 02:31:54;;;;;;;13.13;5.68;;;13.20;99.90;;;;;;5011576;28;20040;-63
2023/06/01 02:34:20;;;;;;;14.65;5.63;;;13.10;99.90;;;;;;4995792;28;20552;-64
2023/06/01 02:36:46;;;;;;;14.65;5.72;;;13.10;99.90;;;;;;5023875;28;20175;-64
2023/06/01 02:39:12;;;;;;;14.90;5.45;;;13.10;99.90;;;;;;5022861;28;20126;-64
2023/06/01 02:41:38;;;;;;;12.77;5.40;;;13.10;99.90;;;;;;4994819;28;20093;-63
2023/06/01 02:44:03;;;;;;;13.52;5.93;;;13.00;99.90;;;;;;5013738;28;20473;-64
2023/06/01 02:46:29;;;;;;;10.07;4.70;;;13.00;99.90;;;;;;5021233;28;20065;-61
2023/06/01 02:48:55;;;;;;;14.95;5.88;;;12.90;99.90;;;;;;5022552;28;20053;-63
2023/06/01 02:51:20;;;;;;;15.35;5.50;;;12.90;99.90;;;;;;5020137;28;20030;-64
2023/06/01 02:53:46;;;;;;;15.60;5.70;;;12.90;99.90;;;;;;5018339;28;20037;-63
2023/06/01 02:56:12;;;;;;;12.48;5.32;;;12.90;99.90;;;;;;5026664;28;20025;-63
2023/06/01 02:58:38;;;;;;;12.68;4.93;;;12.80;99.90;;;;;;5011494;28;20485;-63
2023/06/01 03:01:04;;;;;;;16.42;5.63;;;12.90;99.90;;;;;;5012416;28;20038;-63
2023/06/01 03:03:30;;;;;;;18.35;5.80;;;12.90;99.90;;;;;;5001297;28;20104;-64
2023/06/01 03:05:57;;;;;;;15.98;6.00;;;12.90;99.90;;;;;;5009711;28;20502;-63
2023/06/01 03:08:24;;;;;;;13.07;5.20;;;12.90;99.90;;;;;;5020207;28;20502;-64
2023/06/01 03:10:50;;;;;;;12.75;5.47;;;12.90;99.90;;;;;;5010922;28;20041;-62
2023/06/01 03:13:16;;;;;;;12.93;5.18;;;12.90;99.90;;;;;;5023881;28;20040;-64
2023/06/01 03:15:41;;;;;;;15.13;5.53;;;12.90;99.90;;;;;;5020158;28;20563;-63
2023/06/01 03:18:08;;;;;;;10.52;4.90;;;12.90;99.90;;;;;;5027151;28;20033;-65
2023/06/01 03:20:34;;;;;;;15.13;5.40;;;12.90;99.90;;;;;;5017076;28;20492;-64
2023/06/01 03:23:00;;;;;;;11.80;5.20;;;12.90;99.90;;;;;;5011530;28;20041;-64
2023/06/01 03:25:26;;;;;;;12.32;5.82;;;12.90;99.90;;;;;;5018934;28;20046;-64
2023/06/01 03:27:52;;;;;;;16.90;6.05;;;12.80;99.90;;;;;;5008856;28;20404;-64
2023/06/01 03:30:18;;;;;;;13.05;5.85;;;12.80;99.90;;;;;;5008864;28;20029;-64
2023/06/01 03:32:44;;;;;;;16.83;6.30;;;12.90;99.90;;;;;;4995446;28;20065;-64
2023/06/01 03:35:11;;;;;;;13.43;5.63;;;12.80;99.90;;;;;;5026141;28;20041;-64
2023/06/01 03:37:38;;;;;;;13.48;5.22;;;12.80;99.90;;;;;;4993317;28;20452;-64
2023/06/01 03:40:11;;;;;;;12.60;5.22;;;12.80;99.90;;;;;;5008990;28;20050;-64
2023/06/01 03:42:47;;;;;;;16.70;6.57;;;12.80;99.90;;;;;;5002761;28;20049;-63
2023/06/01 03:45:15;;;;;;;13.73;5.57;;;12.80;99.90;;;;;;5011940;28;20050;-63
2023/06/01 03:47:41;;;;;;;13.98;5.68;;;12.80;99.90;;;;;;5008793;28;20049;-61
2023/06/01 03:50:09;;;;;;;14.65;5.57;;;12.80;99.90;;;;;;5000727;28;20041;-64
2023/06/01 03:52:35;;;;;;;14.52;5.63;;;12.80;99.90;;;;;;5005896;28;20092;-63
2023/06/01 03:55:04;;;;;;;13.52;5.20;;;12.80;99.90;;;;;;5017209;28;20792;-64
2023/06/01 03:57:30;;;;;;;13.95;6.05;;;12.80;99.90;;;;;;5010314;28;20038;-63
2023/06/01 03:59:56;;;;;;;14.77;5.95;;;12.80;99.90;;;;;;5021782;28;20128;-64
2023/06/01 04:02:22;;;;;;;17.23;5.85;;;12.80;99.90;;;;;;5016754;28;20083;-62
2023/06/01 04:04:48;;;;;;;12.40;5.60;;;12.80;99.90;;;;;;5005231;28;20052;-63
2023/06/01 04:07:14;;;;;;;13.50;5.78;;;12.80;99.90;;;;;;5009359;28;20040;-63
2023/06/01 04:09:43;;;;;;;12.23;5.82;;;12.90;99.90;;;;;;5023636;28;20550;-63
2023/06/01 04:12:10;;;;;;;11.77;5.35;;;13.10;99.90;;;;;;5012144;28;20459;-63
2023/06/01 04:14:36;;;;;;;12.73;5.22;;;12.80;99.90;;;;;;5019804;28;20042;-63
2023/06/01 04:17:02;;;;;;;16.58;5.25;;;12.80;99.90;;;;;;5010930;28;20044;-62
2023/06/01 04:19:27;;;;;;;14.77;5.80;;;12.80;99.90;;;;;;5026257;28;20443;-61
2023/06/01 04:21:53;;;;;;;13.82;5.90;;;12.80;99.90;;;;;;5013957;28;20088;-62
2023/06/01 04:24:19;;;;;;;15.38;5.57;;;12.90;99.90;;;;;;5026683;28;20056;-60
2023/06/01 04:26:45;;;;;;;10.98;6.00;;;12.90;99.90;;;;;;5023238;28;20033;-60
2023/06/01 04:29:11;;;;;;;13.10;5.53;;;12.90;99.90;;;;;;5027463;28;20037;-61
2023/06/01 04:31:39;;;;;;;10.82;5.05;;;12.90;99.90;;;;;;5025444;28;20040;-61
2023/06/01 04:34:05;;;;;;;11.55;4.95;;;13.00;99.90;;;;;;5012562;28;20077;-62
2023/06/01 04:36:37;;;;;;;8.70;4.65;;;13.00;99.90;;;;;;5021595;28;20542;-60
2023/06/01 04:39:03;;;;;;;11.73;5.05;;;13.00;99.90;;;;;;4997673;28;20216;-64
2023/06/01 04:41:30;;;;;;;12.05;4.60;;;13.00;99.90;;;;;;5020003;28;20042;-61
2023/06/01 04:43:58;;;;;;;10.45;4.43;;;13.00;99.90;;;;;;5015897;28;20508;-61
2023/06/01 04:46:26;;;;;;;13.75;4.38;;;12.90;99.90;;;;;;5027581;28;20044;-60
2023/06/01 04:48:53;;;;;;;14.02;4.55;;;13.00;99.90;;;;;;5025484;28;20052;-60
2023/06/01 04:51:19;;;;;;;8.35;3.70;;;13.00;99.90;;;;;;5030725;28;20117;-63
2023/06/01 04:53:51;;;;;;;9.65;4.20;;;12.90;99.90;;;;;;5001265;28;20053;-63
2023/06/01 04:56:26;;;;;;;9.15;4.15;;;13.00;99.90;;;;;;5015110;28;20037;-60
2023/06/01 04:58:55;;;;;;;10.82;4.63;;;13.00;99.90;;;;;;5002348;28;20047;-60
2023/06/01 05:01:24;;;;;;;11.63;4.28;;;13.00;99.90;;;;;;5019053;28;20038;-62
2023/06/01 05:03:52;;;;;;;12.15;4.30;;;13.00;99.90;;;;;;5004901;28;20141;-60
2023/06/01 05:06:19;;;;;;;10.00;4.28;;;13.00;99.90;;;;;;5015936;28;20037;-61
2023/06/01 05:08:45;;;;;;;8.40;4.07;;;13.00;99.90;;;;;;5016047;28;20442;-64
2023/06/01 05:11:11;;;;;;;8.85;3.97;;;13.10;99.90;;;;;;5021257;28;20073;-60
2023/06/01 05:13:38;;;;;;;8.15;4.32;;;13.10;99.90;;;;;;5021061;28;20038;-61
2023/06/01 05:16:04;;;;;;;9.75;3.80;;;13.00;99.90;;;;;;5022982;28;20471;-61
2023/06/01 05:18:31;;;;;;;9.45;4.50;;;13.00;99.90;;;;;;5016200;28;20070;-62
2023/06/01 05:20:57;;;;;;;8.38;3.92;;;13.00;99.90;;;;;;5022981;28;20034;-60
2023/06/01 05:23:24;;;;;;;9.95;4.68;;;13.10;99.90;;;;;;5017682;28;20369;-61
2023/06/01 05:25:50;;;;;;;11.07;4.35;;;13.10;99.90;;;;;;5021007;28;20046;-62
2023/06/01 05:28:16;;;;;;;9.10;4.50;;;13.10;99.90;;;;;;5003380;28;20041;-61
2023/06/01 05:30:41;;;;;;;11.32;4.45;;;13.00;99.90;;;;;;4999195;28;20105;-66
2023/06/01 05:33:07;;;;;;;12.05;4.22;;;13.10;99.90;;;;;;5000810;28;20037;-60
2023/06/01 05:35:32;;;;;;;11.80;4.45;;;13.10;99.90;;;;;;5014339;28;20042;-61
2023/06/01 05:37:58;;;;;;;9.30;4.13;;;13.10;99.90;;;;;;5024309;28;20049;-62
2023/06/01 05:40:24;;;;;;;12.00;5.00;;;13.10;99.90;;;;;;5021202;28;20502;-65
2023/06/01 05:42:49;;;;;;;11.13;4.68;;;13.10;99.90;;;;;;5026022;28;20041;-61
2023/06/01 05:45:15;;;;;;;7.88;4.43;;;13.10;99.90;;;;;;5014876;28;20408;-61
2023/06/01 05:47:40;;;;;;;10.02;4.43;;;13.10;99.90;;;;;;5011038;28;20038;-62
2023/06/01 05:50:06;;;;;;;11.73;4.40;;;13.00;99.90;;;;;;5003743;28;20088;-63
2023/06/01 05:52:32;;;;;;;10.50;4.40;;;13.10;99.90;;;;;;5029620;28;20526;-60
2023/06/01 05:54:57;;;;;;;9.70;4.40;;;13.10;99.90;;;;;;5001775;28;20088;-61
2023/06/01 05:57:23;;;;;;;12.05;4.35;;;13.10;99.90;;;;;;5027295;28;20037;-61
2023/06/01 05:59:49;;;;;;;13.68;4.55;;;13.20;99.90;;;;;;5025942;28;20041;-61
2023/06/01 06:02:15;;;;;;;8.63;4.18;;;13.10;99.90;;;;;;5017123;28;20503;-61
2023/06/01 06:04:41;;;;;;;11.70;4.40;;;13.20;99.90;;;;;;5008902;28;20127;-62
2023/06/01 06:07:06;;;;;;;11.63;4.55;;;13.20;99.90;;;;;;5018407;28;20074;-64
2023/06/01 06:09:33;;;;;;;11.45;4.53;;;13.10;99.90;;;;;;5020976;28;20041;-61
2023/06/01 06:11:59;;;;;;;11.57;4.70;;;13.20;99.90;;;;;;5022253;28;20118;-62
2023/06/01 06:14:25;;;;;;;10.85;4.47;;;13.30;99.90;;;;;;4990524;28;20060;-64
2023/06/01 06:16:51;;;;;;;9.40;4.18;;;13.20;99.90;;;;;;5022299;28;20041;-64
2023/06/01 06:19:16;;;;;;;13.27;4.57;;;13.30;99.90;;;;;;5032492;28;20037;-59
2023/06/01 06:21:42;;;;;;;10.23;4.25;;;13.20;99.90;;;;;;5002286;28;20041;-61
2023/06/01 06:24:08;;;;;;;8.30;4.18;;;13.40;99.90;;;;;;5001331;28;20046;-60
2023/06/01 06:26:34;;;;;;;10.57;4.32;;;13.40;99.90;;;;;;5012142;28;20029;-61
2023/06/01 06:28:59;;;;;;;10.82;4.82;;;13.40;99.90;;;;;;5000226;28;20044;-63
2023/06/01 06:31:25;;;;;;;9.88;4.35;;;13.40;99.90;;;;;;5019723;28;20057;-66
2023/06/01 06:33:52;;;;;;;11.88;4.35;;;13.40;99.90;;;;;;4999426;28;20046;-62
2023/06/01 06:36:17;;;;;;;10.98;4.55;;;13.40;99.90;;;;;;5015118;28;20105;-63
2023/06/01 06:38:43;;;;;;;10.40;4.45;;;13.40;99.90;;;;;;5037252;22;20067;-63
2023/06/01 06:41:09;;;;;;;12.18;4.43;;;13.40;99.90;;;;;;5051994;28;20039;-63
2023/06/01 06:43:35;;;;;;;7.90;4.28;;;13.40;99.90;;;;;;5027559;28;20406;-63
2023/06/01 06:46:00;;;;;;;10.30;4.85;;;13.50;99.90;;;;;;5023198;28;20049;-63
2023/06/01 06:48:26;;;;;;;8.68;4.50;;;13.50;99.90;;;;;;5027829;28;20056;-62
2023/06/01 06:50:51;;;;;;;10.90;4.50;;;13.50;99.90;;;;;;5030527;28;20051;-63
2023/06/01 06:53:18;;;;;;;10.02;4.35;;;13.50;99.90;;;;;;5022982;28;20043;-62
2023/06/01 06:55:44;;;;;;;13.38;4.55;;;13.50;99.90;;;;;;5050780;28;20032;-63
2023/06/01 06:58:10;;;;;;;11.18;4.03;;;13.50;99.90;;;;;;5021437;28;20163;-63
2023/06/01 07:00:37;;;;;;;12.32;4.05;;;13.60;99.90;;;;;;5036230;28;20049;-63
2023/06/01 07:03:03;;;;;;;10.52;4.75;;;13.60;99.90;;;;;;5030243;28;20083;-63
2023/06/01 07:05:29;;;;;;;9.93;4.00;;;13.60;99.90;;;;;;5024020;28;20045;-62
2023/06/01 07:07:55;;;;;;;8.57;4.43;;;13.70;99.90;;;;;;5043932;28;20082;-63
2023/06/01 07:10:21;;;;;;;9.20;4.10;;;13.80;99.90;;;;;;5023412;28;20509;-63
2023/06/01 07:12:47;;;;;;;8.50;4.05;;;13.80;99.90;;;;;;5033802;28;20041;-63
2023/06/01 07:15:13;;;;;;;10.60;4.28;;;13.90;99.90;;;;;;5025076;28;20044;-63
2023/06/01 07:17:38;;;;;;;8.95;4.28;;;13.90;99.90;;;;;;5029116;28;20399;-63
2023/06/01 07:20:09;;;;;;;7.18;3.75;;;13.90;99.90;;;;;;4999523;28;20551;-63
2023/06/01 07:22:34;;;;;;;8.20;3.92;;;14.00;99.90;;;;;;5033579;28;20037;-63
2023/06/01 07:25:00;;;;;;;8.00;3.72;;;14.00;99.90;;;;;;5034365;28;20522;-63
2023/06/01 07:27:26;;;;;;;8.20;4.15;;;14.00;99.90;;;;;;5031270;28;20040;-63
2023/06/01 07:29:54;;;;;;;9.40;4.07;;;14.10;99.90;;;;;;5032984;28;20037;-63
2023/06/01 07:32:24;;;;;;;8.00;3.70;;;14.10;99.90;;;;;;5047206;28;20041;-63
2023/06/01 07:34:50;;;;;;;7.65;4.18;;;14.10;99.90;;;;;;5041338;28;20052;-63
2023/06/01 07:37:16;;;;;;;10.65;4.45;;;14.20;99.90;;;;;;5029753;28;20121;-63
2023/06/01 07:39:41;;;;;;;10.02;4.32;;;14.20;99.90;;;;;;5034569;28;20495;-63
2023/06/01 07:42:07;;;;;;;10.02;4.30;;;14.20;99.90;;;;;;5019161;28;20052;-63
2023/06/01 07:44:33;;;;;;;9.63;4.15;;;14.30;99.90;;;;;;5013192;28;20052;-63
2023/06/01 07:46:58;;;;;;;8.27;4.18;;;14.30;99.90;;;;;;5036067;28;20388;-63
2023/06/01 07:49:24;;;;;;;10.02;4.30;;;14.40;99.90;;;;;;5031336;28;20487;-63
2023/06/01 07:51:51;;;;;;;9.43;4.15;;;14.40;99.90;;;;;;5030823;28;20050;-63
2023/06/01 07:54:18;;;;;;;10.88;3.75;;;14.50;99.90;;;;;;5036255;28;20406;-63
2023/06/01 07:56:43;;;;;;;11.95;4.07;;;14.50;99.90;;;;;;5019323;28;20095;-63
2023/06/01 07:59:09;;;;;;;8.38;4.03;;;14.60;99.90;;;;;;5036088;28;20504;-63
2023/06/01 08:01:36;;;;;;;8.77;4.43;;;14.60;99.90;;;;;;5037189;28;20071;-63
2023/06/01 08:04:01;;;;;;;10.13;3.90;;;14.70;99.90;;;;;;5001332;28;20045;-63
2023/06/01 08:06:27;;;;;;;9.63;4.43;;;14.80;99.90;;;;;;5026567;28;20194;-63
2023/06/01 08:08:53;;;;;;;8.90;4.35;;;14.80;99.90;;;;;;5034501;28;20033;-62
2023/06/01 08:11:19;;;;;;;10.15;4.20;;;14.80;99.90;;;;;;5018480;28;20075;-63
2023/06/01 08:13:48;;;;;;;11.52;4.40;;;14.80;99.90;;;;;;5021497;28;20061;-63
2023/06/01 08:16:13;;;;;;;10.15;4.30;;;14.80;99.90;;;;;;5029612;28;20494;-63
2023/06/01 08:18:39;;;;;;;14.10;4.40;;;14.90;99.90;;;;;;5020986;28;20045;-63
2023/06/01 08:21:05;;;;;;;10.45;4.00;;;14.90;99.90;;;;;;5017035;28;20048;-63
2023/06/01 08:23:31;;;;;;;8.07;3.70;;;15.00;99.90;;;;;;5036379;28;20037;-63
2023/06/01 08:25:57;;;;;;;10.48;3.97;;;15.10;99.90;;;;;;5019542;28;20408;-63
2023/06/01 08:28:22;;;;;;;9.32;3.78;;;15.20;99.90;;;;;;5027226;28;20091;-62
2023/06/01 08:30:48;;;;;;;7.13;3.63;;;15.20;99.90;;;;;;5024445;28;20180;-62
2023/06/01 08:33:15;;;;;;;10.90;4.25;;;15.20;99.90;;;;;;5036710;28;20112;-62
2023/06/01 08:35:40;;;;;;;8.52;3.72;;;15.20;99.90;;;;;;5019424;28;20046;-63
2023/06/01 08:38:06;;;;;;;11.20;4.40;;;15.20;99.90;;;;;;5018674;28;20037;-64
2023/06/01 08:40:32;;;;;;;8.57;4.05;;;15.20;99.90;;;;;;5017928;28;20039;-63
2023/06/01 08:42:59;;;;;;;7.85;3.55;;;15.20;99.90;;;;;;5024880;28;20102;-63
2023/06/01 08:45:26;;;;;;;8.70;4.32;;;15.30;99.90;;;;;;5016013;28;20100;-63
2023/06/01 08:47:57;;;;;;;10.68;3.70;;;15.30;99.90;;;;;;5023705;28;20048;-63
2023/06/01 08:50:23;;;;;;;7.20;3.35;;;15.40;99.90;;;;;;5048098;28;20044;-63
2023/06/01 08:52:54;;;;;;;8.45;3.55;;;15.40;99.90;;;;;;5038573;28;20037;-63
2023/06/01 08:55:21;;;;;;;7.85;3.67;;;15.40;99.90;;;;;;5042341;28;20041;-63
2023/06/01 08:57:46;;;;;;;7.20;3.70;;;15.40;99.90;;;;;;5027457;28;20052;-63
2023/06/01 09:00:13;;;;;;;7.75;3.50;;;15.40;99.90;;;;;;5034697;28;20033;-62
2023/06/01 09:02:39;;;;;;;11.02;3.50;;;15.50;99.90;;;;;;5013816;28;20513;-62
2023/06/01 09:05:05;;;;;;;6.90;3.80;;;15.50;99.90;;;;;;5030119;28;20041;-62
2023/06/01 09:07:32;;;;;;;9.15;4.07;;;15.50;99.90;;;;;;5027954;28;20515;-63
2023/06/01 09:09:57;;;;;;;6.80;3.67;;;15.50;99.90;;;;;;5039550;28;20033;-63
2023/06/01 09:12:30;;;;;;;11.38;4.32;;;15.50;99.90;;;;;;5017867;28;20045;-63
2023/06/01 09:15:09;;;;;;;6.70;3.67;;;15.60;99.90;;;;;;5040113;28;20045;-63
2023/06/01 09:17:36;;;;;;;6.07;3.60;;;15.60;99.90;;;;;;5009014;28;20048;-63
2023/06/01 09:20:03;;;;;;;9.75;3.53;;;15.70;99.90;;;;;;5034299;28;20313;-63
2023/06/01 09:22:39;;;;;;;8.18;4.63;;;15.70;99.90;;;;;;5026954;28;20041;-63
2023/06/01 09:25:05;;;;;;;10.70;3.92;;;15.70;99.90;;;;;;5023268;28;20047;-63
2023/06/01 09:27:42;;;;;;;7.28;4.35;;;15.80;99.90;;;;;;5033386;28;20033;-63
2023/06/01 09:30:08;;;;;;;8.30;3.90;;;15.80;99.90;;;;;;5019754;28;20041;-63
2023/06/01 09:32:34;;;;;;;7.63;3.78;;;15.80;99.90;;;;;;5031183;28;20049;-63
2023/06/01 09:34:59;;;;;;;7.40;3.72;;;15.90;99.90;;;;;;5033301;28;20443;-63
2023/06/01 09:37:25;;;;;;;7.45;4.07;;;15.90;99.90;;;;;;5017750;28;20046;-63
2023/06/01 09:39:51;;;;;;;5.32;3.17;;;15.90;99.90;;;;;;5034696;28;20045;-63
2023/06/01 09:42:17;;;;;;;8.88;3.78;;;16.00;99.90;;;;;;5031133;28;20117;-63
2023/06/01 09:44:43;;;;;;;4.90;3.03;;;16.00;99.90;;;;;;5015287;28;20125;-63
2023/06/01 09:47:12;;;;;;;6.15;3.20;;;16.00;99.90;;;;;;5033434;28;20034;-63
2023/06/01 09:49:44;;;;;;;4.45;3.05;;;16.10;99.90;;;;;;5048512;28;20710;-63
2023/06/01 09:52:14;;;;;;;4.78;2.90;;;16.10;99.90;;;;;;5011066;28;20048;-63
2023/06/01 09:54:47;;;;;;;5.10;2.65;;;16.10;99.90;;;;;;5033000;28;20494;-63
2023/06/01 09:57:19;;;;;;;5.72;2.85;;;16.10;99.90;;;;;;5015612;28;20499;-63
2023/06/01 09:59:45;;;;;;;;;;;16.10;99.90;;;;;;5033739;28;20034;-63
2023/06/01 10:02:16;;;;;;;5.30;2.58;;;16.10;99.90;;;;;;5033341;28;20007;-63
2023/06/01 10:04:49;;;;;;;2.73;2.00;;;16.10;99.90;;;;;;5048045;28;20526;-63
2023/06/01 10:07:16;;;;;;;3.33;1.98;;;16.10;99.90;;;;;;5022695;28;20045;-63
2023/06/01 10:09:45;;;;;;;3.53;2.10;;;16.10;99.90;;;;;;5022464;28;20407;-63
2023/06/01 10:12:10;;;;;;;3.38;2.00;;;16.10;99.90;;;;;;5023544;28;20077;-63
2023/06/01 10:14:38;;;;;;;3.97;2.00;;;16.10;99.90;;;;;;5039746;28;20130;-63
2023/06/01 10:17:05;;;;;;;3.88;2.03;;;16.00;99.90;;;;;;5018578;28;20487;-62
2023/06/01 10:19:30;;;;;;;5.72;2.17;;;16.00;99.90;;;;;;5029030;28;20045;-63
2023/06/01 10:21:59;;;;;;;3.35;1.83;;;16.00;99.90;;;;;;5018569;28;20052;-63
2023/06/01 10:24:26;;;;;;;2.95;1.95;;;16.00;99.90;;;;;;5038481;28;20677;-63
2023/06/01 10:27:22;;;;;;;4.70;1.90;;;16.00;99.90;;;;;;5034586;28;20041;-63
2023/06/01 10:29:48;;;;;;;3.92;1.80;;;15.90;99.90;;;;;;5041424;28;20044;-62
2023/06/01 10:32:43;;;;;;;3.97;2.20;;;15.90;99.90;;;;;;5033935;28;20483;-63
2023/06/01 10:35:30;;;;;;;3.13;1.70;;;15.90;99.90;;;;;;5037475;28;20036;-63
2023/06/01 10:38:12;;;;;;;4.25;2.40;;;15.80;99.90;;;;;;5041430;28;20080;-63
2023/06/01 10:40:43;;;;;;;6.80;2.72;;;15.80;99.90;;;;;;5018537;28;20052;-63
2023/06/01 10:43:40;;;;;;;4.47;2.38;;;15.80;99.90;;;;;;5033013;28;20033;-62
2023/06/01 10:46:35;;;;;;;6.00;2.67;;;15.80;99.90;;;;;;5035955;28;20492;-63
2023/06/01 10:49:02;;;;;;;6.30;2.92;;;15.80;99.90;;;;;;5046279;28;20033;-63
2023/06/01 10:51:28;;;;;;;7.57;2.83;;;15.80;99.90;;;;;;5038547;28;20036;-63
2023/06/01 10:53:54;;;;;;;10.73;3.30;;;15.70;99.90;;;;;;5018006;28;20045;-63
2023/06/01 10:56:25;;;;;;;8.07;3.78;;;15.70;99.90;;;;;;5022703;28;20068;-63
2023/06/01 10:59:10;;;;;;;6.60;3.10;;;15.70;99.90;;;;;;5035886;28;20037;-63
2023/06/01 11:01:41;;;;;;;11.48;4.15;;;15.70;99.90;;;;;;5050190;28;20630;-62
2023/06/01 11:04:08;;;;;;;7.45;3.88;;;15.60;99.90;;;;;;5044882;28;20036;-63
2023/06/01 11:06:38;;;;;;;8.55;3.90;;;15.70;99.90;;;;;;5021193;28;20040;-62
2023/06/01 11:09:05;;;;;;;9.50;4.00;;;15.70;99.90;;;;;;5018316;28;20037;-63
2023/06/01 11:11:50;;;;;;;7.22;3.90;;;15.80;99.90;;;;;;5029194;28;20041;-63
2023/06/01 11:14:29;;;;;;;7.68;3.90;;;15.80;99.90;;;;;;5028867;28;20041;-62
2023/06/01 11:16:56;;;;;;;7.78;3.67;;;15.90;99.90;;;;;;5013998;28;20046;-63
2023/06/01 11:19:27;;;;;;;6.22;3.13;;;16.00;99.90;;;;;;5023650;28;20084;-63
2023/06/01 11:22:05;;;;;;;9.30;3.58;;;16.00;99.90;;;;;;5014004;28;20049;-63
2023/06/01 11:24:37;;;;;;;7.28;3.35;;;16.10;99.90;;;;;;5020499;28;20041;-63
2023/06/01 11:27:08;;;;;;;6.68;3.53;;;16.10;99.90;;;;;;5043771;28;20044;-63
2023/06/01 11:29:34;;;;;;;9.23;3.47;;;16.10;99.90;;;;;;5021280;28;20032;-63
2023/06/01 11:32:03;;;;;;;9.43;3.90;;;16.20;99.90;;;;;;5024027;28;20561;-63
2023/06/01 11:34:28;;;;;;;10.68;3.95;;;16.20;99.90;;;;;;5037732;28;20075;-63
2023/06/01 11:36:55;;;;;;;9.35;3.55;;;16.30;99.90;;;;;;5015270;28;20077;-62
2023/06/01 11:39:27;;;;;;;10.77;4.20;;;16.30;99.90;;;;;;5021339;28;20041;-63
2023/06/01 11:42:05;;;;;;;7.03;3.20;;;16.30;99.90;;;;;;5013103;28;20045;-62
2023/06/01 11:44:36;;;;;;;8.20;3.30;;;16.40;99.90;;;;;;5026397;28;20107;-62
2023/06/01 11:47:03;;;;;;;8.02;3.13;;;16.40;99.90;;;;;;5027435;28;20052;-63
2023/06/01 11:49:29;;;;;;;8.82;3.10;;;16.40;99.90;;;;;;5037576;28;20045;-62
2023/06/01 11:51:56;;;;;;;8.48;3.50;;;16.50;99.90;;;;;;5039059;28;20136;-63
2023/06/01 11:54:24;;;;;;;8.57;3.28;;;16.60;99.90;;;;;;5036281;28;20045;-63
2023/06/01 11:56:51;;;;;;;7.85;3.13;;;16.60;99.90;;;;;;5048039;28;20542;-63
2023/06/01 11:59:17;;;;;;;7.95;3.10;;;16.60;99.90;;;;;;5040557;28;20116;-63
2023/06/01 12:01:45;;;;;;;5.50;2.92;;;16.60;99.90;;;;;;5045450;28;20059;-63
2023/06/01 12:04:15;;;;;;;6.60;3.03;;;16.70;99.90;;;;;;5034753;28;20025;-63
2023/06/01 12:06:41;;;;;;;7.80;3.30;;;16.70;99.90;;;;;;5039286;28;20033;-63
2023/06/01 12:09:08;;;;;;;6.55;2.88;;;16.70;99.90;;;;;;5016312;28;20467;-62
2023/06/01 12:11:34;;;;;;;10.55;3.45;;;16.70;99.90;;;;;;5033171;28;20033;-63
2023/06/01 12:14:01;;;;;;;10.13;2.97;;;16.70;99.90;;;;;;5032583;28;20328;-63
2023/06/01 12:17:00;;;;;;;5.75;3.10;;;16.70;99.90;;;;;;5018572;28;20037;-63
2023/06/01 12:19:26;;;;;;;9.50;3.65;;;16.70;99.90;;;;;;5036836;28;20445;-63
2023/06/01 12:21:57;;;;;;;8.18;3.28;;;16.80;99.90;;;;;;5034237;28;20037;-63
2023/06/01 12:24:32;;;;;;;10.35;3.25;;;16.80;99.90;;;;;;5015089;28;20395;-63
2023/06/01 12:27:02;;;;;;;9.07;3.30;;;16.90;99.90;;;;;;5022088;28;20065;-63
2023/06/01 12:29:42;;;;;;;10.30;3.25;;;16.90;99.90;;;;;;5023946;28;20040;-63
2023/06/01 12:32:08;;;;;;;8.98;3.28;;;16.90;99.90;;;;;;5022562;28;20032;-63
2023/06/01 12:34:36;;;;;;;7.35;3.13;;;16.90;99.90;;;;;;5016970;28;20037;-63
2023/06/01 12:37:18;;;;;;;6.53;2.90;;;16.90;99.90;;;;;;5029763;28;20053;-63
2023/06/01 12:39:55;;;;;;;8.73;3.47;;;17.10;99.90;;;;;;5079279;22;20044;-75
2023/06/01 12:42:39;;;;;;;8.80;3.42;;;17.10;99.90;;;;;;5032697;28;20033;-79
2023/06/01 12:45:08;;;;;;;8.55;3.65;;;17.20;99.90;;;;;;5045579;28;20247;-78
2023/06/01 12:47:41;;;;;;;10.45;3.45;;;17.20;99.90;;;;;;5057126;28;20107;-78